sensor_id;sensor_type;location;lat;lon;timestamp;pressure;altitude;pressure_sealevel;temperature;humidity
64368;BME280;50692;53.314;-6.300;2022-11-15T00:00:40;98727.22;;;12.49;100.00
64368;BME280;50692;53.314;-6.300;2022-11-15T00:03:26;98721.53;;;12.54;100.00
64368;BME280;50692;53.314;-6.300;2022-11-15T00:06:13;98711.47;;;12.58;100.00
64368;BME280;50692;53.314;-6.300;2022-11-15T00:08:59;98707.84;;;12.59;100.00
64368;BME280;50692;53.314;-6.300;2022-11-15T00:11:45;98658.19;;;12.61;100.00
64368;BME280;50692;53.314;-6.300;2022-11-15T00:14:31;98702.25;;;12.62;100.00
64368;BME280;50692;53.314;-6.300;2022-11-15T00:17:17;98665.00;;;12.63;100.00
64368;BME280;50692;53.314;-6.300;2022-11-15T00:20:03;98670.56;;;12.70;100.00
64368;BME280;50692;53.314;-6.300;2022-11-15T00:22:49;98667.06;;;12.69;100.00
64368;BME280;50692;53.314;-6.300;2022-11-15T00:25:35;98663.03;;;12.75;100.00
64368;BME280;50692;53.314;-6.300;2022-11-15T00:28:21;98646.69;;;12.80;100.00
64368;BME280;50692;53.314;-6.300;2022-11-15T00:31:11;98633.25;;;12.81;100.00
64368;BME280;50692;53.314;-6.300;2022-11-15T00:33:57;98641.75;;;12.85;100.00
64368;BME280;50692;53.314;-6.300;2022-11-15T00:36:43;98619.63;;;12.76;100.00
64368;BME280;50692;53.314;-6.300;2022-11-15T00:39:29;98625.84;;;12.85;99.91
64368;BME280;50692;53.314;-6.300;2022-11-15T00:42:15;98624.72;;;12.87;99.54
64368;BME280;50692;53.314;-6.300;2022-11-15T00:45:01;98565.81;;;12.66;99.54
64368;BME280;50692;53.314;-6.300;2022-11-15T00:47:47;98611.56;;;12.95;99.48
64368;BME280;50692;53.314;-6.300;2022-11-15T00:50:33;98599.31;;;12.94;99.68
64368;BME280;50692;53.314;-6.300;2022-11-15T00:53:18;98589.69;;;12.93;99.76
64368;BME280;50692;53.314;-6.300;2022-11-15T00:56:06;98582.41;;;12.95;99.34
64368;BME280;50692;53.314;-6.300;2022-11-15T00:58:52;98594.00;;;12.94;99.11
64368;BME280;50692;53.314;-6.300;2022-11-15T01:01:38;98578.47;;;13.00;98.96
64368;BME280;50692;53.314;-6.300;2022-11-15T01:04:24;98581.34;;;13.06;98.63
64368;BME280;50692;53.314;-6.300;2022-11-15T01:07:10;98582.88;;;13.09;98.34
64368;BME280;50692;53.314;-6.300;2022-11-15T01:09:55;98573.28;;;13.08;98.55
64368;BME280;50692;53.314;-6.300;2022-11-15T01:12:41;98573.09;;;13.09;98.62
64368;BME280;50692;53.314;-6.300;2022-11-15T01:15:27;98565.00;;;13.11;98.43
64368;BME280;50692;53.314;-6.300;2022-11-15T01:18:13;98556.91;;;13.12;98.48
64368;BME280;50692;53.314;-6.300;2022-11-15T01:20:58;98558.25;;;13.16;98.08
64368;BME280;50692;53.314;-6.300;2022-11-15T01:23:44;98557.44;;;13.16;98.04
64368;BME280;50692;53.314;-6.300;2022-11-15T01:26:30;98536.06;;;13.17;97.89
64368;BME280;50692;53.314;-6.300;2022-11-15T01:29:16;98530.75;;;13.17;98.17
64368;BME280;50692;53.314;-6.300;2022-11-15T01:32:02;98528.09;;;13.17;98.19
64368;BME280;50692;53.314;-6.300;2022-11-15T01:34:48;98525.16;;;13.20;98.18
64368;BME280;50692;53.314;-6.300;2022-11-15T01:37:33;98519.47;;;13.15;98.29
64368;BME280;50692;53.314;-6.300;2022-11-15T01:40:19;98523.06;;;13.24;98.19
64368;BME280;50692;53.314;-6.300;2022-11-15T01:43:24;98514.63;;;13.29;98.33
64368;BME280;50692;53.314;-6.300;2022-11-15T01:49:15;98507.06;;;13.34;98.07
64368;BME280;50692;53.314;-6.300;2022-11-15T01:52:05;98490.47;;;13.32;98.01
64368;BME280;50692;53.314;-6.300;2022-11-15T01:54:56;98497.00;;;13.37;98.15
64368;BME280;50692;53.314;-6.300;2022-11-15T01:57:46;98542.09;;;13.37;98.04
64368;BME280;50692;53.314;-6.300;2022-11-15T02:00:33;98595.31;;;13.08;95.13
64368;BME280;50692;53.314;-6.300;2022-11-15T02:03:20;98588.50;;;12.41;92.38
64368;BME280;50692;53.314;-6.300;2022-11-15T02:06:09;98589.16;;;11.96;92.89
64368;BME280;50692;53.314;-6.300;2022-11-15T02:08:56;98609.94;;;11.62;93.53
64368;BME280;50692;53.314;-6.300;2022-11-15T02:11:43;98598.50;;;11.42;94.32
64368;BME280;50692;53.314;-6.300;2022-11-15T02:14:31;98630.78;;;11.26;94.38
64368;BME280;50692;53.314;-6.300;2022-11-15T02:29:57;98654.75;;;10.94;95.06
64368;BME280;50692;53.314;-6.300;2022-11-15T02:32:58;98645.59;;;10.98;94.65
64368;BME280;50692;53.314;-6.300;2022-11-15T02:36:11;98656.00;;;10.99;93.71
64368;BME280;50692;53.314;-6.300;2022-11-15T02:42:04;98654.97;;;10.81;93.60
64368;BME280;50692;53.314;-6.300;2022-11-15T02:45:17;98643.09;;;10.66;93.42
64368;BME280;50692;53.314;-6.300;2022-11-15T02:48:06;98656.81;;;10.60;92.07
64368;BME280;50692;53.314;-6.300;2022-11-15T02:50:53;98657.66;;;10.60;92.45
64368;BME280;50692;53.314;-6.300;2022-11-15T02:53:38;98653.03;;;10.52;92.15
64368;BME280;50692;53.314;-6.300;2022-11-15T02:56:24;98667.94;;;10.53;92.48
64368;BME280;50692;53.314;-6.300;2022-11-15T02:59:36;98675.28;;;10.50;92.49
64368;BME280;50692;53.314;-6.300;2022-11-15T03:19:40;98670.38;;;10.24;91.96
64368;BME280;50692;53.314;-6.300;2022-11-15T03:22:33;98668.81;;;10.22;91.81
64368;BME280;50692;53.314;-6.300;2022-11-15T03:25:24;98680.06;;;10.24;91.88
64368;BME280;50692;53.314;-6.300;2022-11-15T03:28:15;98675.19;;;10.19;91.81
64368;BME280;50692;53.314;-6.300;2022-11-15T03:31:04;98689.09;;;10.21;91.69
64368;BME280;50692;53.314;-6.300;2022-11-15T03:34:29;98685.16;;;10.16;91.55
64368;BME280;50692;53.314;-6.300;2022-11-15T03:37:21;98686.25;;;10.13;91.17
64368;BME280;50692;53.314;-6.300;2022-11-15T03:40:08;98685.81;;;10.08;91.16
64368;BME280;50692;53.314;-6.300;2022-11-15T03:46:01;98675.63;;;10.03;91.00
64368;BME280;50692;53.314;-6.300;2022-11-15T03:48:51;98672.41;;;10.00;90.02
64368;BME280;50692;53.314;-6.300;2022-11-15T03:51:38;98668.56;;;10.04;89.52
64368;BME280;50692;53.314;-6.300;2022-11-15T03:54:24;98663.28;;;10.04;89.37
64368;BME280;50692;53.314;-6.300;2022-11-15T03:57:10;98663.38;;;10.02;89.24
64368;BME280;50692;53.314;-6.300;2022-11-15T03:59:56;98666.75;;;10.04;89.11
64368;BME280;50692;53.314;-6.300;2022-11-15T04:02:41;98657.84;;;10.05;89.41
64368;BME280;50692;53.314;-6.300;2022-11-15T04:05:27;98657.75;;;10.07;89.40
64368;BME280;50692;53.314;-6.300;2022-11-15T04:08:13;98649.25;;;10.03;89.20
64368;BME280;50692;53.314;-6.300;2022-11-15T04:10:59;98650.47;;;9.99;89.40
64368;BME280;50692;53.314;-6.300;2022-11-15T04:13:45;98640.03;;;9.98;89.63
64368;BME280;50692;53.314;-6.300;2022-11-15T04:16:30;98641.41;;;9.92;89.48
64368;BME280;50692;53.314;-6.300;2022-11-15T04:19:16;98638.28;;;9.87;89.39
64368;BME280;50692;53.314;-6.300;2022-11-15T04:22:20;98638.66;;;9.82;89.28
64368;BME280;50692;53.314;-6.300;2022-11-15T04:25:25;98647.41;;;9.83;89.12
64368;BME280;50692;53.314;-6.300;2022-11-15T04:28:11;98653.09;;;9.78;88.53
64368;BME280;50692;53.314;-6.300;2022-11-15T04:30:57;98652.13;;;9.79;88.86
64368;BME280;50692;53.314;-6.300;2022-11-15T04:33:43;98654.75;;;9.79;88.71
64368;BME280;50692;53.314;-6.300;2022-11-15T04:36:28;98661.00;;;9.78;88.52
64368;BME280;50692;53.314;-6.300;2022-11-15T04:39:33;98665.69;;;9.75;88.38
64368;BME280;50692;53.314;-6.300;2022-11-15T04:42:18;98681.28;;;9.78;88.42
64368;BME280;50692;53.314;-6.300;2022-11-15T04:45:04;98670.97;;;9.75;88.27
64368;BME280;50692;53.314;-6.300;2022-11-15T04:47:50;98665.69;;;9.75;88.33
64368;BME280;50692;53.314;-6.300;2022-11-15T04:50:36;98663.16;;;9.73;88.22
64368;BME280;50692;53.314;-6.300;2022-11-15T04:53:22;98652.84;;;9.70;88.00
64368;BME280;50692;53.314;-6.300;2022-11-15T04:56:08;98645.91;;;9.69;87.97
64368;BME280;50692;53.314;-6.300;2022-11-15T04:58:54;98657.53;;;9.67;87.97
64368;BME280;50692;53.314;-6.300;2022-11-15T05:01:40;98652.03;;;9.70;87.56
64368;BME280;50692;53.314;-6.300;2022-11-15T05:04:26;98653.72;;;9.71;87.34
64368;BME280;50692;53.314;-6.300;2022-11-15T05:07:12;98644.00;;;9.71;87.28
64368;BME280;50692;53.314;-6.300;2022-11-15T05:09:57;98661.94;;;9.77;87.20
64368;BME280;50692;53.314;-6.300;2022-11-15T05:12:43;98665.94;;;9.72;87.03
64368;BME280;50692;53.314;-6.300;2022-11-15T05:15:29;98668.19;;;9.76;86.93
64368;BME280;50692;53.314;-6.300;2022-11-15T05:18:15;98666.28;;;9.78;86.76
64368;BME280;50692;53.314;-6.300;2022-11-15T05:21:05;98685.19;;;9.83;86.39
64368;BME280;50692;53.314;-6.300;2022-11-15T05:23:51;98680.09;;;9.71;86.65
64368;BME280;50692;53.314;-6.300;2022-11-15T05:26:37;98698.88;;;9.77;86.54
64368;BME280;50692;53.314;-6.300;2022-11-15T05:29:22;98693.34;;;9.80;86.57
64368;BME280;50692;53.314;-6.300;2022-11-15T05:32:09;98688.81;;;9.82;86.18
64368;BME280;50692;53.314;-6.300;2022-11-15T05:34:55;98703.06;;;9.80;86.14
64368;BME280;50692;53.314;-6.300;2022-11-15T05:37:41;98712.94;;;9.78;86.07
64368;BME280;50692;53.314;-6.300;2022-11-15T05:40:28;98720.56;;;9.81;85.96
64368;BME280;50692;53.314;-6.300;2022-11-15T05:43:15;98725.63;;;9.73;85.95
64368;BME280;50692;53.314;-6.300;2022-11-15T05:46:03;98732.72;;;9.72;85.94
64368;BME280;50692;53.314;-6.300;2022-11-15T05:48:51;98734.75;;;9.69;85.79
64368;BME280;50692;53.314;-6.300;2022-11-15T05:51:41;98733.22;;;9.66;85.50
64368;BME280;50692;53.314;-6.300;2022-11-15T05:54:28;98731.78;;;9.62;85.31
64368;BME280;50692;53.314;-6.300;2022-11-15T05:57:14;98724.25;;;9.57;84.87
64368;BME280;50692;53.314;-6.300;2022-11-15T06:00:00;98723.16;;;9.60;84.70
64368;BME280;50692;53.314;-6.300;2022-11-15T06:02:46;98733.97;;;9.57;84.61
64368;BME280;50692;53.314;-6.300;2022-11-15T06:05:32;98733.13;;;9.56;84.36
64368;BME280;50692;53.314;-6.300;2022-11-15T06:08:18;98748.22;;;9.54;84.41
64368;BME280;50692;53.314;-6.300;2022-11-15T06:11:05;98754.56;;;9.52;84.43
64368;BME280;50692;53.314;-6.300;2022-11-15T06:13:51;98736.63;;;9.46;84.25
64368;BME280;50692;53.314;-6.300;2022-11-15T06:16:37;98727.53;;;9.39;84.00
64368;BME280;50692;53.314;-6.300;2022-11-15T06:19:23;98735.16;;;9.42;83.82
64368;BME280;50692;53.314;-6.300;2022-11-15T06:22:09;98745.84;;;9.40;83.54
64368;BME280;50692;53.314;-6.300;2022-11-15T06:24:55;98746.91;;;9.37;83.52
64368;BME280;50692;53.314;-6.300;2022-11-15T06:27:40;98735.69;;;9.35;83.32
64368;BME280;50692;53.314;-6.300;2022-11-15T06:30:26;98740.22;;;9.33;83.21
64368;BME280;50692;53.314;-6.300;2022-11-15T06:33:12;98724.41;;;9.22;83.17
64368;BME280;50692;53.314;-6.300;2022-11-15T06:36:07;98735.19;;;9.30;83.10
64368;BME280;50692;53.314;-6.300;2022-11-15T06:38:53;98735.19;;;9.30;82.91
64368;BME280;50692;53.314;-6.300;2022-11-15T06:41:38;98733.53;;;9.29;82.70
64368;BME280;50692;53.314;-6.300;2022-11-15T06:44:24;98738.78;;;9.29;82.66
64368;BME280;50692;53.314;-6.300;2022-11-15T06:47:10;98751.25;;;9.27;82.63
64368;BME280;50692;53.314;-6.300;2022-11-15T06:49:56;98742.13;;;9.20;82.23
64368;BME280;50692;53.314;-6.300;2022-11-15T06:52:42;98751.59;;;9.23;82.28
64368;BME280;50692;53.314;-6.300;2022-11-15T06:55:28;98744.53;;;9.12;81.98
64368;BME280;50692;53.314;-6.300;2022-11-15T06:58:14;98749.56;;;9.15;81.44
64368;BME280;50692;53.314;-6.300;2022-11-15T07:01:04;98762.53;;;9.18;81.57
64368;BME280;50692;53.314;-6.300;2022-11-15T07:03:50;98761.69;;;9.18;81.18
64368;BME280;50692;53.314;-6.300;2022-11-15T07:06:36;98774.03;;;9.17;80.93
64368;BME280;50692;53.314;-6.300;2022-11-15T07:09:22;98779.41;;;9.16;80.66
64368;BME280;50692;53.314;-6.300;2022-11-15T07:12:08;98782.16;;;9.14;80.53
64368;BME280;50692;53.314;-6.300;2022-11-15T07:14:54;98772.47;;;9.15;80.32
64368;BME280;50692;53.314;-6.300;2022-11-15T07:17:39;98774.88;;;9.06;79.87
64368;BME280;50692;53.314;-6.300;2022-11-15T07:20:25;98776.78;;;9.04;79.73
64368;BME280;50692;53.314;-6.300;2022-11-15T07:23:11;98774.28;;;9.03;79.45
64368;BME280;50692;53.314;-6.300;2022-11-15T07:25:58;98770.44;;;9.07;79.35
64368;BME280;50692;53.314;-6.300;2022-11-15T07:28:44;98775.69;;;9.07;79.14
64368;BME280;50692;53.314;-6.300;2022-11-15T07:31:30;98776.31;;;9.10;79.12
64368;BME280;50692;53.314;-6.300;2022-11-15T07:34:16;98765.16;;;9.07;79.17
64368;BME280;50692;53.314;-6.300;2022-11-15T07:37:01;98769.69;;;9.05;79.12
64368;BME280;50692;53.314;-6.300;2022-11-15T07:39:47;98762.16;;;9.00;79.28
64368;BME280;50692;53.314;-6.300;2022-11-15T07:42:33;98772.19;;;8.95;79.77
64368;BME280;50692;53.314;-6.300;2022-11-15T07:45:44;98776.25;;;8.88;79.75
64368;BME280;50692;53.314;-6.300;2022-11-15T07:48:32;98775.31;;;8.78;80.13
64368;BME280;50692;53.314;-6.300;2022-11-15T07:51:18;98783.09;;;8.79;80.02
64368;BME280;50692;53.314;-6.300;2022-11-15T07:54:04;98783.31;;;8.76;79.78
64368;BME280;50692;53.314;-6.300;2022-11-15T07:56:49;98773.97;;;8.72;79.70
64368;BME280;50692;53.314;-6.300;2022-11-15T07:59:35;98776.00;;;8.69;80.00
64368;BME280;50692;53.314;-6.300;2022-11-15T08:02:22;98779.81;;;8.64;80.44
64368;BME280;50692;53.314;-6.300;2022-11-15T08:05:08;98780.28;;;8.58;80.31
64368;BME280;50692;53.314;-6.300;2022-11-15T08:07:57;98789.16;;;8.57;80.69
64368;BME280;50692;53.314;-6.300;2022-11-15T08:10:43;98784.34;;;8.51;80.71
64368;BME280;50692;53.314;-6.300;2022-11-15T08:13:29;98798.69;;;8.47;80.84
64368;BME280;50692;53.314;-6.300;2022-11-15T08:16:15;98794.38;;;8.46;80.96
64368;BME280;50692;53.314;-6.300;2022-11-15T08:19:00;98797.59;;;8.38;81.22
64368;BME280;50692;53.314;-6.300;2022-11-15T08:21:46;98785.91;;;8.30;82.02
64368;BME280;50692;53.314;-6.300;2022-11-15T08:24:32;98773.69;;;8.29;82.16
64368;BME280;50692;53.314;-6.300;2022-11-15T08:27:19;98788.03;;;8.25;82.51
64368;BME280;50692;53.314;-6.300;2022-11-15T08:30:05;98790.91;;;8.22;82.71
64368;BME280;50692;53.314;-6.300;2022-11-15T08:32:53;98786.78;;;8.06;82.93
64368;BME280;50692;53.314;-6.300;2022-11-15T08:35:43;98793.94;;;8.04;83.51
64368;BME280;50692;53.314;-6.300;2022-11-15T08:38:28;98805.81;;;8.10;83.78
64368;BME280;50692;53.314;-6.300;2022-11-15T08:41:27;98815.94;;;8.03;83.80
64368;BME280;50692;53.314;-6.300;2022-11-15T08:44:13;98815.25;;;8.12;83.91
64368;BME280;50692;53.314;-6.300;2022-11-15T08:46:59;98808.31;;;8.11;83.66
64368;BME280;50692;53.314;-6.300;2022-11-15T08:49:45;98811.56;;;8.15;83.55
64368;BME280;50692;53.314;-6.300;2022-11-15T08:52:31;98804.09;;;8.09;83.08
64368;BME280;50692;53.314;-6.300;2022-11-15T08:55:17;98790.34;;;8.05;82.68
64368;BME280;50692;53.314;-6.300;2022-11-15T08:58:03;98793.00;;;8.16;82.15
64368;BME280;50692;53.314;-6.300;2022-11-15T09:00:49;98789.94;;;8.23;81.51
64368;BME280;50692;53.314;-6.300;2022-11-15T09:03:35;98785.91;;;8.30;81.05
64368;BME280;50692;53.314;-6.300;2022-11-15T09:06:20;98792.13;;;8.29;80.66
64368;BME280;50692;53.314;-6.300;2022-11-15T09:09:06;98743.59;;;8.09;80.39
64368;BME280;50692;53.314;-6.300;2022-11-15T09:11:52;98784.72;;;8.34;80.02
64368;BME280;50692;53.314;-6.300;2022-11-15T09:14:38;98781.38;;;8.32;79.96
64368;BME280;50692;53.314;-6.300;2022-11-15T09:17:24;98767.38;;;8.31;79.81
64368;BME280;50692;53.314;-6.300;2022-11-15T09:20:10;98767.75;;;8.38;79.62
64368;BME280;50692;53.314;-6.300;2022-11-15T09:22:59;98769.94;;;8.44;79.61
64368;BME280;50692;53.314;-6.300;2022-11-15T09:25:46;98773.09;;;8.49;79.53
64368;BME280;50692;53.314;-6.300;2022-11-15T09:28:32;98773.56;;;8.54;79.39
64368;BME280;50692;53.314;-6.300;2022-11-15T09:31:18;98779.22;;;8.61;79.05
64368;BME280;50692;53.314;-6.300;2022-11-15T09:34:04;98767.38;;;8.67;78.79
64368;BME280;50692;53.314;-6.300;2022-11-15T09:36:50;98777.91;;;8.67;77.94
64368;BME280;50692;53.314;-6.300;2022-11-15T09:39:36;98765.00;;;8.75;77.84
64368;BME280;50692;53.314;-6.300;2022-11-15T09:48:47;98762.88;;;9.25;77.14
64368;BME280;50692;53.314;-6.300;2022-11-15T09:51:37;98762.47;;;9.63;77.11
64368;BME280;50692;53.314;-6.300;2022-11-15T09:54:33;98762.78;;;9.92;75.65
64368;BME280;50692;53.314;-6.300;2022-11-15T09:57:54;98744.66;;;10.20;74.15
64368;BME280;50692;53.314;-6.300;2022-11-15T10:00:47;98736.72;;;10.73;71.74
64368;BME280;50692;53.314;-6.300;2022-11-15T10:03:34;98739.97;;;11.17;71.73
64368;BME280;50692;53.314;-6.300;2022-11-15T10:06:23;98740.97;;;11.66;69.71
64368;BME280;50692;53.314;-6.300;2022-11-15T10:09:20;98753.47;;;12.04;67.46
64368;BME280;50692;53.314;-6.300;2022-11-15T10:12:10;98746.50;;;12.32;65.70
64368;BME280;50692;53.314;-6.300;2022-11-15T10:15:05;98741.50;;;12.95;62.27
64368;BME280;50692;53.314;-6.300;2022-11-15T10:20:50;98731.69;;;13.71;57.61
64368;BME280;50692;53.314;-6.300;2022-11-15T10:23:38;98741.34;;;14.07;57.20
64368;BME280;50692;53.314;-6.300;2022-11-15T10:26:24;98749.25;;;14.17;55.07
64368;BME280;50692;53.314;-6.300;2022-11-15T10:29:10;98746.88;;;13.96;55.24
64368;BME280;50692;53.314;-6.300;2022-11-15T10:31:56;98739.72;;;13.79;55.01
64368;BME280;50692;53.314;-6.300;2022-11-15T10:34:42;98721.25;;;14.05;54.93
64368;BME280;50692;53.314;-6.300;2022-11-15T10:37:29;98723.41;;;14.63;54.85
64368;BME280;50692;53.314;-6.300;2022-11-15T10:40:20;98719.56;;;15.18;52.89
64368;BME280;50692;53.314;-6.300;2022-11-15T10:43:14;98713.41;;;15.59;50.98
64368;BME280;50692;53.314;-6.300;2022-11-15T10:46:19;98710.69;;;16.02;49.17
64368;BME280;50692;53.314;-6.300;2022-11-15T10:49:22;98714.19;;;16.43;48.06
64368;BME280;50692;53.314;-6.300;2022-11-15T10:52:18;98712.69;;;16.82;48.23
64368;BME280;50692;53.314;-6.300;2022-11-15T10:58:09;98706.88;;;17.25;45.22
64368;BME280;50692;53.314;-6.300;2022-11-15T11:01:19;98690.03;;;17.25;44.08
64368;BME280;50692;53.314;-6.300;2022-11-15T11:04:08;98699.81;;;17.72;45.06
64368;BME280;50692;53.314;-6.300;2022-11-15T11:06:57;98702.31;;;17.82;43.07
64368;BME280;50692;53.314;-6.300;2022-11-15T11:09:43;98703.81;;;18.07;42.40
64368;BME280;50692;53.314;-6.300;2022-11-15T11:12:34;98702.16;;;18.44;41.60
64368;BME280;50692;53.314;-6.300;2022-11-15T11:15:22;98702.09;;;18.75;40.76
64368;BME280;50692;53.314;-6.300;2022-11-15T11:18:25;98694.31;;;18.80;40.10
64368;BME280;50692;53.314;-6.300;2022-11-15T11:21:18;98688.44;;;19.00;40.10
64368;BME280;50692;53.314;-6.300;2022-11-15T11:36:51;98677.72;;;19.29;37.70
64368;BME280;50692;53.314;-6.300;2022-11-15T11:42:55;98662.97;;;19.70;36.39
64368;BME280;50692;53.314;-6.300;2022-11-15T11:49:10;98636.69;;;19.80;35.13
64368;BME280;50692;53.314;-6.300;2022-11-15T11:55:14;98630.22;;;20.67;34.06
64368;BME280;50692;53.314;-6.300;2022-11-15T11:58:19;98632.03;;;21.01;32.84
64368;BME280;50692;53.314;-6.300;2022-11-15T12:01:22;98630.88;;;21.10;33.61
64368;BME280;50692;53.314;-6.300;2022-11-15T12:04:24;98634.22;;;20.84;32.81
64368;BME280;50692;53.314;-6.300;2022-11-15T12:07:24;98627.88;;;20.92;32.94
64368;BME280;50692;53.314;-6.300;2022-11-15T12:13:13;98637.88;;;21.11;33.23
64368;BME280;50692;53.314;-6.300;2022-11-15T12:16:21;98634.91;;;21.34;31.67
64368;BME280;50692;53.314;-6.300;2022-11-15T12:19:07;98623.63;;;21.59;31.60
64368;BME280;50692;53.314;-6.300;2022-11-15T12:22:04;98627.09;;;21.04;31.34
64368;BME280;50692;53.314;-6.300;2022-11-15T12:25:17;98612.28;;;21.15;31.24
64368;BME280;50692;53.314;-6.300;2022-11-15T12:31:18;98614.22;;;21.35;30.33
64368;BME280;50692;53.314;-6.300;2022-11-15T12:34:36;98609.38;;;21.10;29.99
64368;BME280;50692;53.314;-6.300;2022-11-15T12:37:44;98594.22;;;21.44;29.93
64368;BME280;50692;53.314;-6.300;2022-11-15T12:40:37;98590.69;;;21.37;29.26
64368;BME280;50692;53.314;-6.300;2022-11-15T12:43:40;98595.25;;;21.36;29.29
64368;BME280;50692;53.314;-6.300;2022-11-15T12:52:10;98581.94;;;22.16;29.32
64368;BME280;50692;53.314;-6.300;2022-11-15T12:54:58;98589.34;;;22.14;28.72
64368;BME280;50692;53.314;-6.300;2022-11-15T12:57:45;98581.88;;;22.09;27.89
64368;BME280;50692;53.314;-6.300;2022-11-15T13:03:22;98585.06;;;21.25;29.16
64368;BME280;50692;53.314;-6.300;2022-11-15T13:06:34;98577.94;;;21.65;29.88
64368;BME280;50692;53.314;-6.300;2022-11-15T13:17:58;98553.97;;;21.97;29.23
64368;BME280;50692;53.314;-6.300;2022-11-15T13:20:45;98550.03;;;22.13;28.78
64368;BME280;50692;53.314;-6.300;2022-11-15T13:23:31;98550.69;;;22.21;28.50
64368;BME280;50692;53.314;-6.300;2022-11-15T13:26:17;98544.66;;;21.93;28.67
64368;BME280;50692;53.314;-6.300;2022-11-15T13:29:03;98547.56;;;22.11;28.41
64368;BME280;50692;53.314;-6.300;2022-11-15T13:31:48;98541.56;;;21.89;28.06
64368;BME280;50692;53.314;-6.300;2022-11-15T13:34:34;98551.63;;;21.41;29.02
64368;BME280;50692;53.314;-6.300;2022-11-15T13:40:29;98551.84;;;20.91;29.40
64368;BME280;50692;53.314;-6.300;2022-11-15T13:46:23;98549.09;;;21.26;29.23
64368;BME280;50692;53.314;-6.300;2022-11-15T13:49:09;98543.19;;;21.50;29.51
64368;BME280;50692;53.314;-6.300;2022-11-15T13:52:00;98532.03;;;21.93;29.17
64368;BME280;50692;53.314;-6.300;2022-11-15T13:55:00;98539.03;;;22.47;28.43
64368;BME280;50692;53.314;-6.300;2022-11-15T13:57:52;98532.81;;;22.54;28.12
64368;BME280;50692;53.314;-6.300;2022-11-15T14:00:44;98539.16;;;22.79;27.69
64368;BME280;50692;53.314;-6.300;2022-11-15T14:03:33;98535.22;;;22.82;28.01
64368;BME280;50692;53.314;-6.300;2022-11-15T14:06:21;98526.59;;;22.53;27.81
64368;BME280;50692;53.314;-6.300;2022-11-15T14:11:56;98523.38;;;22.18;28.40
64368;BME280;50692;53.314;-6.300;2022-11-15T14:14:46;98530.16;;;22.34;28.58
64368;BME280;50692;53.314;-6.300;2022-11-15T14:17:35;98521.25;;;22.40;27.65
64368;BME280;50692;53.314;-6.300;2022-11-15T14:23:27;98520.84;;;21.63;28.36
64368;BME280;50692;53.314;-6.300;2022-11-15T14:26:31;98517.22;;;21.16;29.27
64368;BME280;50692;53.314;-6.300;2022-11-15T14:29:25;98508.06;;;20.91;29.78
64368;BME280;50692;53.314;-6.300;2022-11-15T14:32:17;98510.75;;;20.49;30.52
64368;BME280;50692;53.314;-6.300;2022-11-15T14:35:14;98503.53;;;19.87;30.90
64368;BME280;50692;53.314;-6.300;2022-11-15T14:38:00;98513.13;;;19.53;32.16
64368;BME280;50692;53.314;-6.300;2022-11-15T14:40:46;98505.34;;;19.15;32.64
64368;BME280;50692;53.314;-6.300;2022-11-15T14:43:32;98503.13;;;18.83;33.57
64368;BME280;50692;53.314;-6.300;2022-11-15T14:46:18;98502.78;;;18.27;34.48
64368;BME280;50692;53.314;-6.300;2022-11-15T14:49:04;98508.84;;;17.68;35.49
64368;BME280;50692;53.314;-6.300;2022-11-15T14:51:49;98507.50;;;17.26;36.36
64368;BME280;50692;53.314;-6.300;2022-11-15T14:54:35;98514.06;;;16.92;37.43
64368;BME280;50692;53.314;-6.300;2022-11-15T14:57:21;98499.00;;;16.60;38.18
64368;BME280;50692;53.314;-6.300;2022-11-15T15:00:08;98483.44;;;16.33;38.93
64368;BME280;50692;53.314;-6.300;2022-11-15T15:02:55;98495.53;;;16.04;39.55
64368;BME280;50692;53.314;-6.300;2022-11-15T15:05:43;98489.59;;;15.77;40.35
64368;BME280;50692;53.314;-6.300;2022-11-15T15:08:29;98491.59;;;15.59;40.58
64368;BME280;50692;53.314;-6.300;2022-11-15T15:11:25;98484.41;;;15.43;41.64
64368;BME280;50692;53.314;-6.300;2022-11-15T15:14:12;98486.22;;;15.10;42.03
64368;BME280;50692;53.314;-6.300;2022-11-15T15:16:59;98477.88;;;14.97;42.41
64368;BME280;50692;53.314;-6.300;2022-11-15T15:19:45;98476.84;;;14.73;42.82
64368;BME280;50692;53.314;-6.300;2022-11-15T15:22:31;98479.50;;;14.73;43.06
64368;BME280;50692;53.314;-6.300;2022-11-15T15:25:34;98449.16;;;14.42;43.50
64368;BME280;50692;53.314;-6.300;2022-11-15T15:28:20;98476.88;;;14.39;44.01
64368;BME280;50692;53.314;-6.300;2022-11-15T15:31:08;98481.22;;;14.14;44.43
64368;BME280;50692;53.314;-6.300;2022-11-15T15:33:54;98476.88;;;13.79;44.75
64368;BME280;50692;53.314;-6.300;2022-11-15T15:36:40;98478.91;;;13.59;45.69
64368;BME280;50692;53.314;-6.300;2022-11-15T15:39:25;98464.38;;;13.45;45.98
64368;BME280;50692;53.314;-6.300;2022-11-15T15:42:11;98474.28;;;13.43;46.43
64368;BME280;50692;53.314;-6.300;2022-11-15T15:44:57;98470.44;;;13.37;46.70
64368;BME280;50692;53.314;-6.300;2022-11-15T15:47:43;98457.97;;;13.30;47.06
64368;BME280;50692;53.314;-6.300;2022-11-15T15:50:32;98466.56;;;13.14;47.46
64368;BME280;50692;53.314;-6.300;2022-11-15T15:53:18;98459.38;;;13.06;47.55
64368;BME280;50692;53.314;-6.300;2022-11-15T15:56:05;98460.19;;;13.07;47.68
64368;BME280;50692;53.314;-6.300;2022-11-15T15:58:53;98468.63;;;13.02;47.90
64368;BME280;50692;53.314;-6.300;2022-11-15T16:01:40;98459.00;;;13.01;47.65
64368;BME280;50692;53.314;-6.300;2022-11-15T16:04:26;98450.00;;;12.94;47.98
64368;BME280;50692;53.314;-6.300;2022-11-15T16:07:21;98452.94;;;13.09;48.29
64368;BME280;50692;53.314;-6.300;2022-11-15T16:10:30;98449.81;;;13.13;48.45
64368;BME280;50692;53.314;-6.300;2022-11-15T16:13:16;98448.41;;;13.19;47.99
64368;BME280;50692;53.314;-6.300;2022-11-15T16:16:04;98445.56;;;13.20;48.36
64368;BME280;50692;53.314;-6.300;2022-11-15T16:18:54;98448.22;;;13.20;48.94
64368;BME280;50692;53.314;-6.300;2022-11-15T16:21:40;98444.22;;;13.16;49.25
64368;BME280;50692;53.314;-6.300;2022-11-15T16:24:25;98441.03;;;13.13;49.34
64368;BME280;50692;53.314;-6.300;2022-11-15T16:27:16;98438.03;;;13.08;49.56
64368;BME280;50692;53.314;-6.300;2022-11-15T16:30:02;98436.13;;;13.00;49.98
64368;BME280;50692;53.314;-6.300;2022-11-15T16:32:48;98428.25;;;12.90;50.27
64368;BME280;50692;53.314;-6.300;2022-11-15T16:35:34;98428.03;;;12.84;50.42